createdAt,value
2017-09-27T00:01:12.250Z,23.08
2017-09-27T00:03:39.863Z,24.00
2017-09-27T00:06:07.509Z,27.40
2017-09-27T00:08:35.175Z,24.73
2017-09-27T00:11:02.794Z,25.30
2017-09-27T00:13:30.437Z,22.95
2017-09-27T00:15:58.054Z,21.60
2017-09-27T00:18:25.670Z,23.83
2017-09-27T00:20:53.318Z,27.27
2017-09-27T00:23:20.934Z,24.83
2017-09-27T00:25:48.553Z,28.35
2017-09-27T00:28:16.965Z,24.83
2017-09-27T00:30:44.581Z,25.88
2017-09-27T00:33:12.197Z,24.17
2017-09-27T00:35:39.850Z,22.60
2017-09-27T00:38:08.233Z,22.13
2017-09-27T00:40:35.853Z,22.15
2017-09-27T00:43:03.838Z,22.80
2017-09-27T00:45:31.466Z,21.77
2017-09-27T00:47:59.845Z,23.83
2017-09-27T00:50:27.494Z,25.50
2017-09-27T00:52:55.117Z,25.30
2017-09-27T00:55:23.498Z,22.87
2017-09-27T00:57:51.146Z,24.70
2017-09-27T01:00:18.775Z,23.58
2017-09-27T01:02:46.453Z,22.13
2017-09-27T01:05:14.117Z,21.75
2017-09-27T01:07:41.729Z,27.87
2017-09-27T01:10:10.109Z,23.90
2017-09-27T01:12:37.757Z,28.30
2017-09-27T01:15:05.376Z,28.95
2017-09-27T01:17:33.762Z,29.52
2017-09-27T01:20:01.417Z,30.90
2017-09-27T01:22:29.035Z,33.45
2017-09-27T01:24:57.423Z,29.15
2017-09-27T01:27:25.079Z,34.72
2017-09-27T01:29:52.698Z,32.95
2017-09-27T01:32:20.318Z,33.25
2017-09-27T01:34:47.978Z,33.78
2017-09-27T01:37:16.362Z,34.08
2017-09-27T01:39:43.980Z,30.65
2017-09-27T01:42:12.398Z,28.52
2017-09-27T01:44:40.017Z,37.30
2017-09-27T01:47:07.637Z,28.38
2017-09-27T01:49:35.281Z,28.60
2017-09-27T01:52:02.898Z,32.60
2017-09-27T01:54:30.517Z,30.75
2017-09-27T01:56:58.165Z,26.45
2017-09-27T01:59:25.789Z,32.75
2017-09-27T02:01:53.410Z,36.75
2017-09-27T02:04:21.829Z,35.92
2017-09-27T02:06:49.462Z,32.83
2017-09-27T02:09:17.087Z,31.17
2017-09-27T02:11:45.502Z,38.08
2017-09-27T02:14:13.124Z,35.53
2017-09-27T02:16:40.741Z,36.72
2017-09-27T02:19:09.155Z,33.05
2017-09-27T02:21:36.773Z,34.40
2017-09-27T02:24:04.393Z,33.95
2017-09-27T02:26:32.810Z,30.25
2017-09-27T02:29:00.434Z,31.17
2017-09-27T02:31:28.058Z,28.42
2017-09-27T02:33:55.717Z,29.20
2017-09-27T02:36:23.334Z,29.42
2017-09-27T02:38:51.721Z,24.15
2017-09-27T02:41:19.373Z,26.65
2017-09-27T02:43:46.985Z,27.23
2017-09-27T02:46:14.601Z,26.90
2017-09-27T02:48:42.255Z,30.45
2017-09-27T02:51:09.878Z,33.60
2017-09-27T02:53:37.506Z,32.20
2017-09-27T02:56:05.164Z,28.67
2017-09-27T02:58:32.784Z,29.85
2017-09-27T03:01:00.396Z,36.85
2017-09-27T03:03:28.053Z,32.25
2017-09-27T03:05:56.443Z,31.27
2017-09-27T03:08:24.114Z,30.85
2017-09-27T03:10:51.764Z,33.95
2017-09-27T03:13:19.385Z,31.02
2017-09-27T03:15:46.999Z,35.20
2017-09-27T03:18:14.650Z,38.47
2017-09-27T03:20:42.274Z,30.65
2017-09-27T03:23:09.897Z,29.42
2017-09-27T03:25:37.561Z,34.05
2017-09-27T03:28:05.181Z,35.95
2017-09-27T03:30:32.794Z,33.30
2017-09-27T03:33:01.201Z,38.50
2017-09-27T03:35:28.821Z,36.05
2017-09-27T03:37:56.434Z,40.95
2017-09-27T03:40:24.085Z,31.67
2017-09-27T03:42:51.701Z,39.42
2017-09-27T03:45:19.322Z,39.47
2017-09-27T03:47:46.967Z,40.75
2017-09-27T03:50:14.583Z,39.33
2017-09-27T03:52:42.198Z,34.38
2017-09-27T03:55:09.848Z,43.22
2017-09-27T03:57:37.468Z,43.75
2017-09-27T04:00:05.093Z,33.72
2017-09-27T04:02:32.746Z,33.08
2017-09-27T04:05:00.371Z,42.10
2017-09-27T04:07:27.989Z,31.10
2017-09-27T04:09:55.639Z,32.72
2017-09-27T04:12:23.250Z,38.05
2017-09-27T04:14:50.870Z,41.55
2017-09-27T04:17:18.575Z,42.65
2017-09-27T04:19:46.190Z,36.60
2017-09-27T04:22:13.810Z,34.08
2017-09-27T04:24:41.453Z,45.35
2017-09-27T04:27:09.069Z,46.22
2017-09-27T04:29:36.677Z,37.30
2017-09-27T04:32:04.330Z,49.03
2017-09-27T04:34:31.954Z,34.45
2017-09-27T04:36:59.596Z,34.67
2017-09-27T04:39:27.255Z,31.77
2017-09-27T04:41:54.869Z,30.42
2017-09-27T04:44:22.489Z,31.58
2017-09-27T04:46:50.137Z,38.45
2017-09-27T04:49:18.543Z,32.97
2017-09-27T04:51:46.190Z,34.78
2017-09-27T04:54:14.647Z,41.37
2017-09-27T04:56:42.269Z,44.80
2017-09-27T04:59:10.676Z,35.78
2017-09-27T05:01:38.333Z,50.38
2017-09-27T05:04:05.959Z,46.63
2017-09-27T05:06:33.598Z,56.08
2017-09-27T05:09:01.252Z,48.42
2017-09-27T05:11:28.879Z,49.00
2017-09-27T05:13:56.499Z,44.25
2017-09-27T05:16:24.145Z,45.83
2017-09-27T05:18:51.761Z,36.75
2017-09-27T05:21:19.387Z,43.05
2017-09-27T05:23:47.041Z,44.35
2017-09-27T05:26:17.130Z,39.72
2017-09-27T05:28:45.100Z,39.40
2017-09-27T05:31:12.765Z,46.25
2017-09-27T05:33:40.389Z,36.00
2017-09-27T05:36:08.005Z,37.05
2017-09-27T05:38:35.662Z,34.50
2017-09-27T05:41:03.291Z,37.90
2017-09-27T05:43:31.672Z,37.95
2017-09-27T05:45:59.323Z,41.58
2017-09-27T05:48:26.939Z,38.08
2017-09-27T07:12:52.502Z,26.02
2017-09-27T07:15:20.114Z,24.55
2017-09-27T07:17:47.730Z,22.95
2017-09-27T07:20:15.382Z,22.27
2017-09-27T07:22:43.002Z,22.15
2017-09-27T07:25:10.631Z,26.05
2017-09-27T07:27:38.256Z,21.83
2017-09-27T07:30:05.846Z,20.10
2017-09-27T07:32:34.201Z,18.03
2017-09-27T07:35:02.589Z,21.77
2017-09-27T07:37:30.180Z,19.50
2017-09-27T07:39:57.770Z,20.63
2017-09-27T07:42:25.397Z,19.03
2017-09-27T07:44:53.763Z,19.33
2017-09-27T07:47:22.114Z,19.07
2017-09-27T07:49:49.742Z,19.53
2017-09-27T07:52:17.334Z,18.00
2017-09-27T07:54:44.921Z,19.30
2017-09-27T07:57:12.541Z,15.43
2017-09-27T07:59:40.130Z,17.73
2017-09-27T08:02:07.733Z,17.47
2017-09-27T08:04:35.358Z,15.40
2017-09-27T08:07:02.954Z,15.67
2017-09-27T08:09:30.557Z,15.33
2017-09-27T08:11:58.178Z,15.43
2017-09-27T08:14:26.534Z,14.83
2017-09-27T08:16:54.126Z,15.40
2017-09-27T08:19:21.750Z,13.80
2017-09-27T08:21:49.346Z,14.10
2017-09-27T08:24:16.936Z,13.53
2017-09-27T08:26:45.329Z,13.87
2017-09-27T08:29:12.920Z,14.87
2017-09-27T08:31:40.540Z,14.67
2017-09-27T08:34:08.165Z,12.83
2017-09-27T08:36:35.753Z,13.90
2017-09-27T08:39:03.341Z,13.23
2017-09-27T08:41:30.959Z,14.53
2017-09-27T08:43:58.546Z,14.90
2017-09-27T08:46:26.138Z,13.80
2017-09-27T08:48:53.763Z,13.77
2017-09-27T08:51:21.353Z,13.63
2017-09-27T08:53:49.706Z,13.60
2017-09-27T08:56:18.093Z,15.03
2017-09-27T08:58:45.683Z,13.90
2017-09-27T09:01:13.270Z,13.80
2017-09-27T09:03:41.662Z,14.40
2017-09-27T09:06:09.254Z,13.87
2017-09-27T09:08:36.842Z,12.00
2017-09-27T09:11:04.472Z,14.83
2017-09-27T09:13:32.074Z,13.53
2017-09-27T09:15:59.666Z,12.93
2017-09-27T09:18:27.293Z,12.60
2017-09-27T09:20:54.888Z,13.13
2017-09-27T09:23:22.475Z,14.07
2017-09-27T09:25:50.094Z,12.60
2017-09-27T09:28:17.686Z,14.03
2017-09-27T09:30:46.037Z,12.10
2017-09-27T09:33:13.655Z,11.90
2017-09-27T09:35:41.242Z,13.80
2017-09-27T09:38:08.830Z,11.60
2017-09-27T09:40:36.445Z,11.87
2017-09-27T09:43:04.043Z,13.23
2017-09-27T09:45:31.639Z,12.03
2017-09-27T09:47:59.258Z,13.47
2017-09-27T09:50:26.851Z,11.90
2017-09-27T09:52:54.441Z,11.90
2017-09-27T09:55:22.060Z,10.23
2017-09-27T09:57:49.644Z,11.97
2017-09-27T10:00:17.235Z,11.93
2017-09-27T10:02:44.855Z,11.33
2017-09-27T10:05:12.473Z,11.10
2017-09-27T10:07:40.094Z,11.37
2017-09-27T10:10:07.783Z,10.20
2017-09-27T10:12:35.396Z,10.60
2017-09-27T10:15:02.977Z,12.40
2017-09-27T10:17:31.361Z,11.87
2017-09-27T10:19:58.945Z,10.80
2017-09-27T10:22:26.534Z,10.20
2017-09-27T10:24:54.917Z,9.30
2017-09-27T10:27:22.503Z,8.77
2017-09-27T10:29:50.085Z,8.53
2017-09-27T10:32:18.474Z,10.60
2017-09-27T10:34:46.048Z,8.57
2017-09-27T10:37:13.649Z,9.37
2017-09-27T10:39:41.266Z,8.20
2017-09-27T10:42:08.858Z,11.37
2017-09-27T10:44:36.437Z,8.63
2017-09-27T10:47:04.055Z,10.83
2017-09-27T10:49:31.637Z,8.63
2017-09-27T10:51:59.234Z,11.17
2017-09-27T10:54:26.850Z,10.77
2017-09-27T10:56:55.206Z,9.03
2017-09-27T10:59:23.557Z,10.40
2017-09-27T11:01:51.180Z,11.53
2017-09-27T11:04:18.774Z,11.00
2017-09-27T11:06:47.132Z,9.57
2017-09-27T11:09:15.517Z,9.40
2017-09-27T11:11:43.101Z,10.10
2017-09-27T11:14:10.690Z,10.67
2017-09-27T11:16:39.080Z,10.73
2017-09-27T11:19:06.677Z,11.27
2017-09-27T11:21:34.258Z,10.70
2017-09-27T11:24:01.883Z,9.77
2017-09-27T11:26:30.234Z,9.17
2017-09-27T11:28:57.827Z,10.33
2017-09-27T11:31:25.441Z,10.80
2017-09-27T11:33:53.789Z,9.83
2017-09-27T11:36:21.373Z,10.50
2017-09-27T11:38:48.990Z,11.27
2017-09-27T11:41:17.338Z,10.80
2017-09-27T11:43:44.922Z,9.90
2017-09-27T11:46:12.550Z,9.50
2017-09-27T11:48:40.905Z,10.07
2017-09-27T11:51:08.490Z,10.23
2017-09-27T11:53:36.112Z,9.17
2017-09-27T11:56:03.690Z,9.53
2017-09-27T11:58:31.274Z,9.77
2017-09-27T12:00:58.885Z,9.60
2017-09-27T12:03:26.477Z,9.60
2017-09-27T12:05:54.832Z,9.27
2017-09-27T12:08:22.453Z,9.17
2017-09-27T12:10:50.034Z,9.73
2017-09-27T12:13:17.622Z,9.83
2017-09-27T12:15:45.239Z,9.60
2017-09-27T12:18:13.594Z,9.10
2017-09-27T12:20:41.958Z,9.60
2017-09-27T12:23:10.342Z,9.90
2017-09-27T12:25:37.926Z,9.30
2017-09-27T12:28:05.516Z,10.23
2017-09-27T12:30:33.138Z,9.13
2017-09-27T12:33:00.721Z,9.40
2017-09-27T12:35:28.316Z,9.47
2017-09-27T12:37:55.938Z,8.37
2017-09-27T12:40:23.527Z,9.60
2017-09-27T12:42:51.121Z,9.00
2017-09-27T12:45:18.742Z,9.20
2017-09-27T12:47:47.094Z,9.57
2017-09-27T12:50:15.448Z,8.70
2017-09-27T12:52:43.062Z,9.07
2017-09-27T12:55:10.650Z,8.57
2017-09-27T12:57:39.002Z,8.63
2017-09-27T13:00:07.385Z,8.43
2017-09-27T13:02:34.969Z,8.50
2017-09-27T13:05:02.549Z,8.80
2017-09-27T13:07:30.173Z,12.80
2017-09-27T13:09:57.766Z,9.37
2017-09-27T13:12:25.353Z,8.70
2017-09-27T13:14:52.974Z,9.20
2017-09-27T13:17:20.553Z,9.10
2017-09-27T13:19:48.147Z,10.43
2017-09-27T13:22:16.535Z,9.67
2017-09-27T13:24:44.126Z,10.13
2017-09-27T13:27:11.718Z,10.00
2017-09-27T13:29:39.338Z,9.47
2017-09-27T13:32:07.695Z,8.47
2017-09-27T13:34:36.049Z,10.60
2017-09-27T13:37:03.686Z,9.40
2017-09-27T13:39:31.282Z,10.23
2017-09-27T13:41:58.861Z,8.43
2017-09-27T13:44:26.483Z,11.30
2017-09-27T13:46:54.058Z,8.70
2017-09-27T13:49:21.641Z,12.00
2017-09-27T13:51:50.026Z,8.90
2017-09-27T13:54:17.622Z,9.80
2017-09-27T13:56:45.202Z,11.30
2017-09-27T13:59:13.581Z,10.83
2017-09-27T14:01:41.174Z,12.67
2017-09-27T14:04:08.770Z,16.50
2017-09-27T14:06:36.389Z,15.87
2017-09-27T14:09:03.977Z,20.43
2017-09-27T14:11:31.571Z,22.93
2017-09-27T14:13:59.459Z,23.40
2017-09-27T14:16:27.050Z,23.03
2017-09-27T14:18:54.637Z,24.90
2017-09-27T14:21:22.257Z,27.27
2017-09-27T14:23:49.849Z,27.67
2017-09-27T14:26:17.448Z,23.43
2017-09-27T14:28:45.079Z,23.40
2017-09-27T14:31:12.675Z,27.57
2017-09-27T14:33:40.265Z,24.33
2017-09-27T14:36:07.891Z,26.43
2017-09-27T14:38:35.485Z,28.73
2017-09-27T14:41:03.840Z,28.07
2017-09-27T14:43:31.462Z,25.07
2017-09-27T14:45:59.053Z,26.63
2017-09-27T14:48:27.407Z,25.40
2017-09-27T14:50:55.902Z,24.87
2017-09-27T14:53:23.549Z,30.07
2017-09-27T14:55:51.146Z,30.17
2017-09-27T14:58:19.546Z,28.53
2017-09-27T15:00:47.155Z,27.07
2017-09-27T15:03:14.747Z,28.50
2017-09-27T15:05:42.368Z,26.87
2017-09-27T15:08:10.722Z,27.63
2017-09-27T15:10:39.085Z,29.17
2017-09-27T15:13:07.483Z,27.03
2017-09-27T15:15:35.070Z,27.17
2017-09-27T15:18:03.834Z,27.73
2017-09-27T15:20:31.464Z,25.60
2017-09-27T15:22:59.052Z,28.13
2017-09-27T15:25:26.642Z,26.33
2017-09-27T15:27:54.266Z,28.77
2017-09-27T15:30:21.862Z,25.97
2017-09-27T15:32:49.478Z,29.00
2017-09-27T15:35:17.098Z,34.13
2017-09-27T15:37:44.690Z,32.30
2017-09-27T15:40:12.284Z,34.00
2017-09-27T15:42:40.678Z,31.33
2017-09-27T15:45:08.271Z,34.63
2017-09-27T15:47:35.856Z,29.47
2017-09-27T15:50:03.482Z,16.20
2017-09-27T15:52:31.847Z,15.00
2017-09-27T15:55:00.206Z,14.67
2017-09-27T15:57:28.591Z,18.23
2017-09-27T15:59:56.205Z,14.27
2017-09-27T16:02:23.794Z,11.00
2017-09-27T16:04:51.413Z,10.03
2017-09-27T16:07:19.770Z,14.07
2017-09-27T16:09:48.138Z,11.53
2017-09-27T16:12:15.758Z,12.10
2017-09-27T16:14:43.355Z,27.47
2017-09-27T16:17:10.946Z,28.80
2017-09-27T16:19:38.578Z,30.00
2017-09-27T16:22:06.178Z,32.50
2017-09-27T16:24:34.554Z,32.77
2017-09-27T16:27:02.179Z,37.17
2017-09-27T16:29:29.774Z,41.10
2017-09-27T16:31:57.373Z,43.67
2017-09-27T16:34:25.766Z,42.37
2017-09-27T16:36:53.372Z,41.90
2017-09-27T16:39:21.733Z,42.87
2017-09-27T16:41:49.383Z,42.70
2017-09-27T16:44:17.754Z,44.73
2017-09-27T16:46:46.119Z,44.80
2017-09-27T16:49:13.774Z,45.20
2017-09-27T16:51:42.502Z,42.97
2017-09-27T16:54:10.889Z,44.17
2017-09-27T16:56:40.002Z,44.42
2017-09-27T16:59:07.629Z,40.12
2017-09-27T17:01:35.246Z,43.67
2017-09-27T17:04:03.670Z,46.70
2017-09-27T17:06:31.279Z,44.33
2017-09-27T17:08:58.902Z,45.95
2017-09-27T17:11:27.321Z,40.95
2017-09-27T17:13:54.922Z,46.20
2017-09-27T17:16:22.547Z,48.17
2017-09-27T17:18:50.966Z,44.20
2017-09-27T17:21:18.589Z,45.25
2017-09-27T17:23:46.283Z,43.03
2017-09-27T17:26:13.945Z,46.55
2017-09-27T17:28:41.573Z,44.92
2017-09-27T17:31:09.197Z,42.33
2017-09-27T17:33:36.863Z,39.88
2017-09-27T17:36:04.483Z,45.53
2017-09-27T17:38:32.106Z,43.50
2017-09-27T17:40:59.761Z,41.25
2017-09-27T17:43:27.386Z,45.35
2017-09-27T17:45:57.216Z,44.70
2017-09-27T17:48:24.893Z,43.75
2017-09-27T17:50:52.518Z,43.95
2017-09-27T17:53:20.160Z,44.03
2017-09-27T17:55:48.486Z,45.70
2017-09-27T17:58:16.872Z,42.13
2017-09-27T18:00:44.494Z,43.75
2017-09-27T18:03:12.929Z,44.33
2017-09-27T18:08:46.306Z,45.17
2017-09-27T18:11:19.611Z,42.55
2017-09-27T18:13:53.689Z,48.80
2017-09-27T18:16:26.880Z,44.00
2017-09-27T18:18:54.539Z,43.70
2017-09-27T18:21:22.926Z,49.92
2017-09-27T18:23:50.549Z,44.95
2017-09-27T18:26:18.974Z,42.40
2017-09-27T18:28:46.599Z,43.78
2017-09-27T18:31:14.230Z,46.20
2017-09-27T18:33:41.891Z,47.67
2017-09-27T18:36:09.527Z,47.58
2017-09-27T18:38:37.156Z,52.15
2017-09-27T18:41:04.808Z,47.80
2017-09-27T18:43:32.441Z,44.20
2017-09-27T18:46:00.877Z,45.25
2017-09-27T18:48:29.322Z,45.63
2017-09-27T18:50:56.953Z,44.85
2017-09-27T18:53:24.578Z,47.17
2017-09-27T18:55:52.237Z,47.90
2017-09-27T18:58:20.513Z,49.70
2017-09-27T19:00:48.154Z,49.47
2017-09-27T19:03:15.818Z,48.03
2017-09-27T19:05:43.449Z,48.90
2017-09-27T19:08:11.080Z,47.10
2017-09-27T19:10:38.737Z,46.80
2017-09-27T19:13:06.361Z,47.90
2017-09-27T19:15:34.070Z,47.65
2017-09-27T19:18:01.727Z,47.00
2017-09-27T19:20:29.346Z,45.22
2017-09-27T19:22:56.964Z,48.53
2017-09-27T19:25:24.610Z,53.05
2017-09-27T19:27:52.230Z,47.45
2017-09-27T19:30:20.625Z,49.55
2017-09-27T19:32:48.287Z,50.45
2017-09-27T19:35:15.934Z,50.83
2017-09-27T19:37:43.554Z,52.30
2017-09-27T19:40:11.215Z,56.28
2017-09-27T19:42:38.847Z,49.42
2017-09-27T19:45:06.473Z,55.20
2017-09-27T19:47:34.894Z,58.28
2017-09-27T19:50:02.515Z,60.65
2017-09-27T19:52:30.139Z,54.10
2017-09-27T19:54:58.749Z,53.78
2017-09-27T19:57:26.378Z,50.40
2017-09-27T19:59:54.004Z,52.20
2017-09-27T20:02:21.666Z,51.17
2017-09-27T20:04:49.310Z,51.33
2017-09-27T20:07:16.922Z,53.00
2017-09-27T20:09:45.342Z,50.33
2017-09-27T20:12:12.962Z,54.88
2017-09-27T20:14:40.588Z,47.58
2017-09-27T20:17:09.079Z,47.95
2017-09-27T20:19:36.750Z,58.35
2017-09-27T20:22:04.371Z,53.80
2017-09-27T20:24:32.820Z,45.75
2017-09-27T20:27:01.004Z,48.65
2017-09-27T20:29:28.790Z,52.58
2017-09-27T20:31:56.453Z,50.25
2017-09-27T20:34:24.083Z,48.00
2017-09-27T20:36:51.710Z,49.03
2017-09-27T20:39:19.370Z,49.83
2017-09-27T20:41:47.004Z,54.65
2017-09-27T20:44:14.635Z,49.45
2017-09-27T20:46:42.297Z,49.50
2017-09-27T20:49:09.931Z,45.20
2017-09-27T20:51:37.617Z,50.15
2017-09-27T20:54:05.282Z,51.97
2017-09-27T20:56:32.915Z,51.10
2017-09-27T20:59:00.587Z,58.17
2017-09-27T21:01:28.237Z,46.33
2017-09-27T21:03:55.860Z,48.40
2017-09-27T21:06:23.482Z,45.80
2017-09-27T21:08:51.143Z,48.13
2017-09-27T21:11:18.770Z,49.45
2017-09-27T21:13:46.398Z,48.38
2017-09-27T21:16:14.058Z,47.42
2017-09-27T21:18:41.681Z,44.35
2017-09-27T21:21:09.313Z,43.42
2017-09-27T21:23:36.979Z,47.78
2017-09-27T21:26:04.612Z,47.62
2017-09-27T21:28:32.234Z,47.83
2017-09-27T21:31:00.650Z,42.58
2017-09-27T21:33:28.271Z,42.40
2017-09-27T21:35:55.898Z,42.10
2017-09-27T21:38:24.314Z,39.42
2017-09-27T21:40:51.947Z,40.03
2017-09-27T21:43:19.569Z,43.28
2017-09-27T21:45:47.226Z,48.03
2017-09-27T21:48:14.843Z,39.85
2017-09-27T21:50:42.466Z,41.35
2017-09-27T21:53:10.126Z,43.47
2017-09-27T21:55:37.738Z,37.60
2017-09-27T21:58:05.363Z,42.53
2017-09-27T22:00:33.025Z,47.25
2017-09-27T22:03:00.654Z,42.50
2017-09-27T22:05:28.279Z,37.50
2017-09-27T22:07:55.934Z,41.08
2017-09-27T22:10:23.567Z,43.45
2017-09-27T22:12:51.194Z,39.58
2017-09-27T22:58:59.254Z,47.08
2017-09-27T23:01:26.874Z,39.53
2017-09-27T23:03:55.290Z,40.22
2017-09-27T23:06:22.906Z,39.25
2017-09-27T23:08:50.535Z,38.85
2017-09-27T23:11:18.190Z,38.42
2017-09-27T23:13:45.821Z,44.83
2017-09-27T23:16:14.250Z,42.38
2017-09-27T23:18:41.862Z,38.15
2017-09-27T23:21:09.486Z,43.70
2017-09-27T23:23:37.903Z,41.50
2017-09-27T23:26:05.528Z,42.20
2017-09-27T23:28:33.191Z,43.65
2017-09-27T23:31:00.813Z,40.70
2017-09-27T23:33:28.436Z,36.47
2017-09-27T23:35:56.073Z,38.25
2017-09-27T23:38:24.457Z,33.60
2017-09-27T23:40:52.109Z,38.17
2017-09-27T23:43:19.725Z,40.67
2017-09-27T23:45:48.119Z,33.85
2017-09-27T23:48:15.768Z,37.95
2017-09-27T23:50:43.454Z,37.45
2017-09-27T23:53:11.106Z,34.75
2017-09-27T23:55:38.730Z,38.35
2017-09-27T23:58:06.354Z,36.83
